Time;durP1;ratioP1;P1;durP2;ratioP2;P2;SDS_P1;SDS_P2;PMS_P1;PMS_P2;Temp;Humidity;BMP_temperature;BMP_pressure;BME280_temperature;BME280_humidity;BME280_pressure;Samples;Min_cycle;Max_cycle;Signal;HPM_P1;HPM_P2
2022/11/29 00:01:41;;;;;;;11.25;8.20;;;;;;;10.61;89.15;98568.41;5091478;28;20055;-49
2022/11/29 00:04:07;;;;;;;12.05;8.32;;;;;;;10.75;89.79;98569.19;5091520;28;20051;-49
2022/11/29 00:06:34;;;;;;;19.10;9.18;;;;;;;10.82;89.26;98567.34;5091404;28;20035;-49
2022/11/29 00:09:06;;;;;;;18.38;10.02;;;;;;;10.88;89.41;98568.34;5090084;28;20375;-49
2022/11/29 00:14:20;;;;;;;20.40;9.55;;;;;;;10.74;89.84;98568.38;5091690;28;20027;-49
2022/11/29 00:16:51;;;;;;;16.25;10.02;;;;;;;10.64;89.88;98569.81;5091577;28;20028;-49
2022/11/29 00:19:17;;;;;;;17.55;11.23;;;;;;;10.45;88.83;98566.19;5091066;28;20056;-49
2022/11/29 00:21:43;;;;;;;14.73;10.90;;;;;;;10.07;89.02;98564.91;5091203;28;20028;-49
2022/11/29 00:24:09;;;;;;;18.33;10.90;;;;;;;9.82;89.51;98563.84;5091285;28;20099;-49
2022/11/29 00:26:36;;;;;;;18.48;11.48;;;;;;;9.76;91.12;98563.66;5093682;28;20046;-48
2022/11/29 00:29:02;;;;;;;23.83;11.75;;;;;;;9.79;91.72;98558.00;5095095;28;20563;-49
2022/11/29 00:31:31;;;;;;;19.63;11.13;;;;;;;9.93;92.50;98558.84;5095140;28;20420;-49
2022/11/29 00:33:57;;;;;;;18.92;11.20;;;;;;;9.95;91.89;98561.28;5094813;28;20020;-49
2022/11/29 00:36:23;;;;;;;21.20;11.93;;;;;;;9.85;91.48;98564.28;5094985;28;20024;-48
2022/11/29 00:38:49;;;;;;;19.15;12.48;;;;;;;9.64;91.67;98562.63;5094653;28;20508;-47
2022/11/29 00:41:14;;;;;;;21.95;13.10;;;;;;;9.44;91.87;98559.09;5095015;28;20030;-47
2022/11/29 00:43:40;;;;;;;18.10;11.52;;;;;;;9.28;92.40;98555.84;5094592;28;20559;-47
2022/11/29 00:46:07;;;;;;;21.98;13.98;;;;;;;9.25;93.43;98556.22;5094620;28;20058;-47
2022/11/29 00:48:33;;;;;;;27.73;14.15;;;;;;;9.23;94.31;98558.22;5094823;28;20024;-48
2022/11/29 00:50:59;;;;;;;27.33;13.40;;;;;;;9.19;95.01;98557.00;5094467;28;20367;-47
2022/11/29 00:53:25;;;;;;;21.95;13.68;;;;;;;9.10;95.23;98556.34;5094482;28;20031;-47
2022/11/29 00:55:51;;;;;;;24.02;13.65;;;;;;;8.96;95.10;98552.06;5094338;28;20110;-47
2022/11/29 00:58:18;;;;;;;68.60;15.52;;;;;;;8.77;95.13;98554.38;5092943;28;20028;-47
2022/11/29 01:00:44;;;;;;;48.65;15.57;;;;;;;8.69;95.62;98553.69;5094291;28;20107;-47
2022/11/29 01:03:10;;;;;;;27.55;15.25;;;;;;;8.67;96.34;98560.91;5093027;28;20111;-48
2022/11/29 01:05:36;;;;;;;15.38;12.50;;;;;;;8.67;96.85;98563.53;5092916;28;20497;-47
2022/11/29 01:08:02;;;;;;;13.75;11.38;;;;;;;8.67;97.48;98564.38;5093186;28;20477;-47
2022/11/29 01:10:27;;;;;;;14.60;11.25;;;;;;;8.74;98.02;98562.59;5092823;28;20020;-47
2022/11/29 01:12:54;;;;;;;21.92;14.10;;;;;;;8.78;98.45;98566.44;5092695;28;20119;-48
2022/11/29 01:15:19;;;;;;;28.10;16.08;;;;;;;8.84;99.19;98572.72;5094240;28;20055;-47
2022/11/29 01:17:45;;;;;;;31.80;14.70;;;;;;;8.92;100.00;98566.53;5093679;28;20513;-48
2022/11/29 01:20:12;;;;;;;29.00;15.30;;;;;;;8.93;100.00;98570.75;5093906;28;20020;-48
2022/11/29 01:22:38;;;;;;;17.05;13.52;;;;;;;8.93;100.00;98574.19;5093934;28;20024;-48
2022/11/29 01:25:06;;;;;;;17.83;11.65;;;;;;;8.96;100.00;98584.25;5094112;28;20054;-48
2022/11/29 01:27:32;;;;;;;17.13;10.90;;;;;;;8.91;100.00;98581.41;5094048;28;20024;-47
2022/11/29 01:29:57;;;;;;;11.68;9.55;;;;;;;8.60;100.00;98572.16;5092425;28;20024;-47
2022/11/29 01:32:25;;;;;;;15.52;9.93;;;;;;;8.65;100.00;98576.00;5092431;28;20035;-47
2022/11/29 01:34:50;;;;;;;12.30;9.90;;;;;;;8.75;100.00;98579.09;5092430;28;20509;-47
2022/11/29 01:37:16;;;;;;;157.75;23.02;;;;;;;8.77;100.00;98577.09;5092345;28;20048;-48
2022/11/29 01:39:41;;;;;;;17.33;9.88;;;;;;;8.87;100.00;98582.78;5093522;28;20432;-47
2022/11/29 01:42:11;;;;;;;15.90;10.35;;;;;;;8.99;100.00;98576.03;5093470;28;20058;-47
2022/11/29 01:44:36;;;;;;;17.60;9.63;;;;;;;9.10;100.00;98586.97;5093772;28;20067;-47
2022/11/29 01:47:02;;;;;;;14.02;9.35;;;;;;;9.14;100.00;98580.34;5093411;28;20137;-47
2022/11/29 01:49:36;;;;;;;14.85;10.98;;;;;;;9.13;100.00;98576.09;5093366;28;20573;-48
2022/11/29 01:52:06;;;;;;;16.73;10.93;;;;;;;9.21;100.00;98575.94;5092017;28;20028;-48
2022/11/29 01:54:35;;;;;;;13.02;8.27;;;;;;;9.28;100.00;98576.78;5092094;28;20513;-48
2022/11/29 01:57:04;;;;;;;17.55;10.57;;;;;;;9.23;100.00;98573.13;5093165;28;20107;-48
2022/11/29 01:59:30;;;;;;;13.35;10.20;;;;;;;9.25;100.00;98573.75;5093148;28;20024;-48
2022/11/29 02:02:04;;;;;;;16.40;10.93;;;;;;;9.24;100.00;98577.38;5091817;28;20069;-48
2022/11/29 02:04:34;;;;;;;16.92;11.20;;;;;;;9.16;100.00;98570.50;5093142;28;20028;-48
2022/11/29 02:07:01;;;;;;;17.98;11.88;;;;;;;9.18;100.00;98569.28;5091724;28;20035;-48
2022/11/29 02:09:26;;;;;;;16.63;11.05;;;;;;;9.33;100.00;98571.75;5093038;28;20028;-48
2022/11/29 02:11:55;;;;;;;13.23;10.18;;;;;;;9.43;100.00;98575.84;5091738;28;20035;-48
2022/11/29 02:14:45;;;;;;;20.17;12.68;;;;;;;9.46;100.00;98571.03;5091623;28;20498;-48
2022/11/29 02:17:29;;;;;;;22.88;13.85;;;;;;;9.62;100.00;98576.91;5091391;28;20031;-48
2022/11/29 02:20:23;;;;;;;21.98;14.30;;;;;;;9.78;100.00;98569.50;5092745;28;20099;-48
2022/11/29 02:23:06;;;;;;;18.55;13.10;;;;;;;9.92;100.00;98566.91;5092774;28;20032;-48
2022/11/29 02:25:56;;;;;;;21.40;11.90;;;;;;;9.97;100.00;98570.53;5092637;28;20024;-48
2022/11/29 02:28:47;;;;;;;16.35;11.32;;;;;;;9.92;100.00;98569.53;5091388;28;20038;-48
2022/11/29 02:31:18;;;;;;;28.05;14.55;;;;;;;9.75;100.00;98572.50;5092644;28;20105;-48
2022/11/29 02:34:05;;;;;;;17.90;10.23;;;;;;;9.58;100.00;98568.66;5091269;28;20032;-48
2022/11/29 02:36:43;;;;;;;26.02;13.02;;;;;;;9.52;100.00;98566.81;5092547;28;20024;-48
2022/11/29 02:39:36;;;;;;;21.65;13.35;;;;;;;9.47;100.00;98563.97;5092369;28;20024;-48
2022/11/29 02:42:21;;;;;;;19.67;15.27;;;;;;;9.45;100.00;98568.59;5091125;28;20035;-48
2022/11/29 02:45:01;;;;;;;19.38;10.68;;;;;;;9.36;100.00;98562.72;5092443;28;20024;-48
2022/11/29 02:47:54;;;;;;;14.85;9.68;;;;;;;9.32;100.00;98567.53;5092340;28;20031;-48
2022/11/29 02:50:49;;;;;;;20.42;9.02;;;;;;;9.39;100.00;98570.97;5092308;28;20131;-48
2022/11/29 02:53:31;;;;;;;13.10;8.75;;;;;;;9.54;100.00;98568.22;5091032;28;20397;-48
2022/11/29 02:56:09;;;;;;;15.63;8.20;;;;;;;9.57;100.00;98572.25;5090913;28;20043;-48
2022/11/29 02:58:50;;;;;;;22.42;8.93;;;;;;;9.47;100.00;98575.25;5092041;28;20516;-48
2022/11/29 03:01:23;;;;;;;21.60;17.25;;;;;;;9.43;100.00;98570.59;5092408;28;20028;-48
2022/11/29 03:04:14;;;;;;;27.85;20.95;;;;;;;9.45;100.00;98569.38;5090867;28;20028;-48
2022/11/29 03:06:55;;;;;;;27.02;19.08;;;;;;;9.56;100.00;98574.06;5062401;28;20221;-48
2022/11/29 03:09:39;;;;;;;11.90;7.85;;;;;;;9.67;100.00;98572.69;5092097;28;20028;-48
2022/11/29 03:12:23;;;;;;;15.70;8.20;;;;;;;9.73;100.00;98579.75;5090763;28;20382;-48
2022/11/29 03:14:54;;;;;;;15.98;8.27;;;;;;;9.77;100.00;98578.38;5091984;28;20012;-48
2022/11/29 03:18:03;;;;;;;22.63;8.88;;;;;;;9.68;100.00;98576.13;5090341;28;20064;-48
2022/11/29 03:20:53;;;;;;;10.68;6.97;;;;;;;9.58;100.00;98579.13;5090522;28;20494;-48
2022/11/29 03:23:32;;;;;;;10.00;6.13;;;;;;;9.59;100.00;98572.88;5090631;28;20513;-48
2022/11/29 03:26:05;;;;;;;8.80;5.40;;;;;;;9.59;100.00;98586.78;5091873;28;20032;-48
2022/11/29 03:28:38;;;;;;;16.17;5.70;;;;;;;9.62;100.00;98588.22;5090622;28;20027;-48
2022/11/29 03:31:15;;;;;;;14.40;5.35;;;;;;;9.63;100.00;98594.25;5090421;28;20115;-48
2022/11/29 03:34:27;;;;;;;10.02;5.25;;;;;;;9.59;100.00;98588.59;5090684;28;20028;-48
2022/11/29 03:37:15;;;;;;;18.20;5.97;;;;;;;9.50;100.00;98587.97;5049214;28;20041;-48
2022/11/29 03:39:46;;;;;;;13.15;5.55;;;;;;;9.52;100.00;98598.25;5049240;28;20048;-48
2022/11/29 03:42:38;;;;;;;8.13;5.00;;;;;;;9.56;100.00;98599.47;5049149;28;20041;-48
2022/11/29 03:45:17;;;;;;;10.68;6.72;;;;;;;9.46;100.00;98588.56;5035563;28;20581;-48
2022/11/29 03:48:17;;;;;;;13.73;5.50;;;;;;;9.50;100.00;98597.63;5049272;28;20187;-48
2022/11/29 03:50:51;;;;;;;7.95;4.95;;;;;;;9.59;100.00;98591.22;5049140;28;20103;-48
2022/11/29 03:53:34;;;;;;;7.22;5.00;;;;;;;9.64;100.00;98596.69;5049136;28;20037;-48
2022/11/29 03:56:03;;;;;;;14.18;5.40;;;;;;;9.56;100.00;98594.25;5032461;28;20036;-48
2022/11/29 03:58:50;;;;;;;17.73;6.30;;;;;;;9.51;100.00;98607.09;5049040;28;20430;-48
2022/11/29 04:01:42;;;;;;;13.20;6.03;;;;;;;9.49;100.00;98609.09;5051032;28;20044;-48
2022/11/29 04:04:16;;;;;;;10.07;6.32;;;;;;;9.48;100.00;98603.06;5052860;28;20518;-48
2022/11/29 04:07:03;;;;;;;16.52;6.85;;;;;;;9.44;100.00;98601.00;5052779;28;20033;-48
2022/11/29 04:09:37;;;;;;;21.98;6.60;;;;;;;9.26;100.00;98604.97;5052949;28;20037;-48
2022/11/29 04:12:22;;;;;;;10.88;6.82;;;;;;;9.30;100.00;98608.81;5052796;28;20086;-48
2022/11/29 04:15:13;;;;;;;13.10;5.40;;;;;;;9.46;100.00;98604.28;5083713;28;20522;-48
2022/11/29 04:18:09;;;;;;;17.38;6.75;;;;;;;9.58;100.00;98607.94;5093597;28;20044;-48
2022/11/29 04:20:40;;;;;;;10.55;5.38;;;;;;;9.64;100.00;98603.72;5093822;28;20557;-48
2022/11/29 04:23:18;;;;;;;9.77;5.68;;;;;;;9.66;100.00;98609.56;5095045;28;20024;-48
2022/11/29 04:26:11;;;;;;;12.05;5.28;;;;;;;9.62;100.00;98603.94;5093668;28;20122;-48
2022/11/29 04:28:40;;;;;;;12.50;7.38;;;;;;;9.61;100.00;98612.78;5093631;28;20020;-48
2022/11/29 04:31:30;;;;;;;9.40;4.72;;;;;;;9.62;100.00;98614.41;5093588;28;20028;-48
2022/11/29 04:34:19;;;;;;;10.13;4.50;;;;;;;9.63;100.00;98612.59;5093584;28;20028;-48
2022/11/29 04:36:48;;;;;;;21.55;5.18;;;;;;;9.56;100.00;98613.38;5093459;28;20152;-48
2022/11/29 04:39:13;;;;;;;14.45;3.92;;;;;;;9.38;100.00;98608.66;5093360;28;20032;-48
2022/11/29 04:42:10;;;;;;;5.03;3.30;;;;;;;9.35;100.00;98614.28;5093399;28;20035;-48
2022/11/29 04:44:35;;;;;;;;;;;;;;;9.40;100.00;98605.84;5093827;28;20128;-48
2022/11/29 04:47:25;;;;;;;6.15;4.05;;;;;;;9.45;100.00;98613.13;5094649;28;20002;-48
2022/11/29 04:49:59;;;;;;;7.40;3.10;;;;;;;9.53;100.00;98613.75;5093298;28;20032;-48
2022/11/29 04:52:55;;;;;;;7.78;2.95;;;;;;;9.59;100.00;98620.81;5094565;28;20020;-48
2022/11/29 04:55:55;;;;;;;4.25;2.75;;;;;;;9.42;100.00;98618.72;5093273;28;20028;-48
2022/11/29 04:58:33;;;;;;;8.65;3.95;;;;;;;9.39;100.00;98618.13;5094367;28;20024;-48
2022/11/29 05:01:23;;;;;;;7.38;4.05;;;;;;;9.18;100.00;98616.41;5094261;28;20103;-48
2022/11/29 05:03:55;;;;;;;44.90;6.57;;;;;;;9.11;100.00;98623.41;5093861;28;20039;-48
2022/11/29 05:06:27;;;;;;;5.22;3.13;;;;;;;8.90;100.00;98626.91;5093036;28;20043;-48
2022/11/29 05:09:19;;;;;;;7.72;3.17;;;;;;;9.04;100.00;98624.38;5092907;28;20093;-48
2022/11/29 05:12:17;;;;;;;6.05;4.13;;;;;;;9.26;100.00;98618.06;5093783;28;20041;-48
2022/11/29 05:15:41;;;;;;;7.78;3.55;;;;;;;9.46;100.00;98626.03;5094148;28;20502;-48
2022/11/29 05:18:33;;;;;;;19.08;4.05;;;;;;;9.49;100.00;98630.88;5045439;28;20501;-47
2022/11/29 05:21:13;;;;;;;4.78;2.83;;;;;;;9.41;100.00;98631.03;5093999;28;20115;-48
2022/11/29 05:24:02;;;;;;;7.18;4.55;;;;;;;9.37;100.00;98632.41;5093990;28;20035;-48
2022/11/29 05:26:43;;;;;;;304.15;29.23;;;;;;;9.52;100.00;98640.16;5093887;28;20024;-48
2022/11/29 05:29:30;;;;;;;4.97;2.50;;;;;;;9.37;100.00;98629.81;5093841;28;20081;-48
2022/11/29 05:32:29;;;;;;;6.32;3.35;;;;;;;9.22;100.00;98635.16;5092484;28;20026;-48
2022/11/29 05:35:07;;;;;;;8.52;2.90;;;;;;;9.38;100.00;98634.84;5092839;28;20031;-48
2022/11/29 05:37:55;;;;;;;9.27;2.78;;;;;;;9.46;100.00;98649.59;5092374;28;20047;-48
2022/11/29 05:40:59;;;;;;;8.48;2.90;;;;;;;9.27;100.00;98642.44;5093665;28;20040;-48
2022/11/29 05:43:45;;;;;;;9.50;3.58;;;;;;;9.29;100.00;98643.06;5093551;28;20024;-48
2022/11/29 05:46:29;;;;;;;7.72;3.55;;;;;;;9.33;100.00;98646.91;5093589;28;20032;-48
2022/11/29 05:49:22;;;;;;;8.07;2.75;;;;;;;9.15;100.00;98650.03;5093429;28;20055;-47
2022/11/29 05:52:06;;;;;;;12.00;3.40;;;;;;;9.22;100.00;98643.03;5092056;28;20482;-48
2022/11/29 05:54:39;;;;;;;10.23;3.20;;;;;;;9.31;100.00;98651.53;5093333;28;20024;-48
2022/11/29 05:57:33;;;;;;;7.65;3.22;;;;;;;9.44;100.00;98654.22;5093812;28;20375;-47
2022/11/29 06:00:02;;;;;;;14.52;4.07;;;;;;;9.54;100.00;98652.06;5087398;28;20039;-48
2022/11/29 06:03:06;;;;;;;8.90;3.78;;;;;;;9.56;100.00;98657.13;5091869;28;20482;-48
2022/11/29 06:05:37;;;;;;;8.48;3.50;;;;;;;9.56;100.00;98651.88;5090094;28;20115;-48
2022/11/29 06:08:33;;;;;;;8.68;3.42;;;;;;;9.40;100.00;98658.25;5093025;28;20065;-48
2022/11/29 06:11:26;;;;;;;8.77;3.67;;;;;;;9.43;100.00;98654.41;5093118;28;20073;-48
2022/11/29 06:14:12;;;;;;;7.82;2.83;;;;;;;9.34;100.00;98659.00;5091653;28;20375;-48
2022/11/29 06:16:52;;;;;;;5.50;3.22;;;;;;;9.25;100.00;98658.34;5092890;28;20012;-47
2022/11/29 06:19:51;;;;;;;10.82;3.05;;;;;;;9.24;100.00;98655.94;5092662;28;20479;-48
2022/11/29 06:22:47;;;;;;;6.63;2.83;;;;;;;9.07;100.00;98660.63;5092828;28;20490;-48
2022/11/29 06:25:32;;;;;;;6.40;2.90;;;;;;;8.93;100.00;98667.59;5092609;28;20023;-48
2022/11/29 06:28:40;;;;;;;6.00;2.97;;;;;;;8.87;100.00;98668.34;5092841;28;20073;-47
2022/11/29 06:31:23;;;;;;;8.65;2.65;;;;;;;8.96;100.00;98677.69;5092697;28;20701;-48
2022/11/29 06:34:06;;;;;;;20.75;3.83;;;;;;;8.99;100.00;98674.69;5091408;28;20028;-48
2022/11/29 06:36:53;;;;;;;29.30;3.85;;;;;;;8.85;100.00;98665.91;5091287;28;20024;-48
2022/11/29 06:39:19;;;;;;;10.25;3.25;;;;;;;8.94;100.00;98667.41;5092493;28;20032;-48
2022/11/29 06:41:45;;;;;;;7.38;3.13;;;;;;;9.17;100.00;98669.75;5092457;28;20436;-48
2022/11/29 06:44:12;;;;;;;6.25;2.85;;;;;;;9.28;100.00;98678.91;5092473;28;20110;-48
2022/11/29 06:46:40;;;;;;;16.35;2.90;;;;;;;9.33;100.00;98673.91;5092352;28;20031;-48
2022/11/29 06:49:16;;;;;;;4.45;3.10;;;;;;;9.03;100.00;98683.75;5092297;28;20028;-48
2022/11/29 06:51:56;;;;;;;;;;;;;;;9.00;100.00;98684.16;5093069;28;20398;-48
2022/11/29 06:54:35;;;;;;;7.20;3.75;;;;;;;8.79;100.00;98691.06;5090983;28;19915;-48
2022/11/29 06:57:19;;;;;;;6.07;3.08;;;;;;;8.65;100.00;98696.34;5092313;28;20028;-48
2022/11/29 06:59:58;;;;;;;13.88;4.40;;;;;;;8.58;100.00;98691.84;5092337;28;20359;-48
2022/11/29 07:02:34;;;;;;;9.13;3.97;;;;;;;8.90;100.00;98689.72;5092142;28;20035;-48
2022/11/29 07:05:11;;;;;;;7.85;3.70;;;;;;;9.13;100.00;98696.53;5090889;28;20104;-48
2022/11/29 07:07:38;;;;;;;5.13;3.70;;;;;;;9.04;100.00;98692.44;5092002;28;20034;-48
2022/11/29 07:10:05;;;;;;;23.50;6.18;;;;;;;8.69;100.00;98687.94;5092270;28;20103;-48
2022/11/29 07:12:31;;;;;;;28.65;5.88;;;;;;;8.58;100.00;98694.47;5090151;28;20027;-48
2022/11/29 07:14:57;;;;;;;13.65;5.45;;;;;;;8.56;100.00;98693.84;5091997;28;20513;-48
2022/11/29 07:17:26;;;;;;;11.75;5.45;;;;;;;8.67;100.00;98695.16;5091634;28;20031;-49
2022/11/29 07:20:12;;;;;;;658.35;59.30;;;;;;;8.63;100.00;98693.91;5090576;28;20028;-48
2022/11/29 07:22:53;;;;;;;10.95;5.95;;;;;;;8.86;100.00;98701.56;5070298;28;20123;-48
2022/11/29 07:26:00;;;;;;;12.40;5.88;;;;;;;8.87;100.00;98703.16;5090964;28;20402;-48
2022/11/29 07:28:58;;;;;;;8.80;6.22;;;;;;;8.90;100.00;98697.56;5091781;28;20032;-48
2022/11/29 07:31:51;;;;;;;15.10;7.13;;;;;;;9.00;100.00;98699.88;5088193;28;20128;-48
2022/11/29 07:34:54;;;;;;;10.07;6.35;;;;;;;9.04;100.00;98692.44;5091003;28;20028;-48
2022/11/29 07:37:38;;;;;;;12.60;7.07;;;;;;;9.13;100.00;98699.16;5077871;28;20508;-48
2022/11/29 07:40:31;;;;;;;9.27;7.50;;;;;;;9.16;100.00;98704.00;5095881;28;20058;-48
2022/11/29 07:43:07;;;;;;;11.32;6.57;;;;;;;9.14;100.00;98704.19;5094629;28;20425;-48
2022/11/29 07:45:36;;;;;;;28.90;7.78;;;;;;;9.22;100.00;98705.06;5094515;28;20510;-48
2022/11/29 07:48:03;;;;;;;11.35;6.63;;;;;;;9.40;100.00;98702.78;5095770;28;20024;-48
2022/11/29 07:50:30;;;;;;;15.40;6.70;;;;;;;9.59;100.00;98701.25;5094386;28;20393;-48
2022/11/29 07:52:56;;;;;;;12.55;7.00;;;;;;;9.75;100.00;98705.38;5094372;28;20504;-48
2022/11/29 07:55:25;;;;;;;13.80;7.28;;;;;;;9.54;100.00;98708.91;5095610;28;20024;-48
2022/11/29 07:57:51;;;;;;;12.40;7.80;;;;;;;9.42;100.00;98707.78;5095413;28;20037;-48
2022/11/29 08:00:18;;;;;;;17.63;7.38;;;;;;;9.31;100.00;98707.31;5095511;28;20024;-48
2022/11/29 08:02:48;;;;;;;8.02;5.40;;;;;;;9.16;100.00;98712.66;5095813;28;20077;-48
2022/11/29 08:05:14;;;;;;;9.02;6.53;;;;;;;8.94;100.00;98706.66;5095436;28;20031;-48
2022/11/29 08:07:40;;;;;;;12.77;6.70;;;;;;;8.99;100.00;98704.31;5095427;28;20016;-48
2022/11/29 08:10:10;;;;;;;14.13;6.97;;;;;;;9.17;100.00;98709.03;5093971;28;20501;-48
2022/11/29 08:12:35;;;;;;;13.27;7.60;;;;;;;9.31;100.00;98715.19;5093963;28;20035;-48
2022/11/29 08:15:01;;;;;;;9.55;6.57;;;;;;;9.42;100.00;98718.28;5093901;28;20493;-48
2022/11/29 08:17:27;;;;;;;17.50;6.75;;;;;;;9.47;100.00;98716.69;5094940;28;20047;-48
2022/11/29 08:19:52;;;;;;;18.80;6.75;;;;;;;9.59;100.00;98714.34;5095138;28;20494;-48
2022/11/29 08:22:18;;;;;;;16.17;7.53;;;;;;;9.71;100.00;98707.56;5093864;28;20363;-48
2022/11/29 08:24:44;;;;;;;15.88;5.63;;;;;;;9.64;100.00;98717.22;5095067;28;20386;-48
2022/11/29 08:27:09;;;;;;;14.55;6.25;;;;;;;9.44;100.00;98718.88;5094968;28;20566;-48
2022/11/29 08:29:35;;;;;;;12.75;6.88;;;;;;;9.38;100.00;98715.25;5093705;28;20028;-48
2022/11/29 08:32:01;;;;;;;20.58;9.20;;;;;;;9.35;100.00;98721.66;5093593;28;20524;-48
2022/11/29 08:34:27;;;;;;;18.92;7.68;;;;;;;9.38;100.00;98716.03;5093569;28;20520;-48
2022/11/29 08:36:56;;;;;;;12.95;7.28;;;;;;;9.47;100.00;98718.50;5093551;28;20028;-48
2022/11/29 08:39:21;;;;;;;24.67;7.10;;;;;;;9.55;100.00;98718.38;5094754;28;20051;-48
2022/11/29 08:41:48;;;;;;;23.30;6.88;;;;;;;9.51;100.00;98722.38;5094811;28;20058;-48
2022/11/29 08:44:14;;;;;;;187.13;167.52;;;;;;;9.50;100.00;98721.56;5094944;28;20059;-48
2022/11/29 08:49:24;;;;;;;147.63;130.63;;;;;;;9.73;100.00;98718.66;5094630;28;20052;-48
2022/11/29 08:53:40;;;;;;;19.88;11.85;;;;;;;9.39;100.00;98715.03;5094515;28;20020;-48
2022/11/29 08:54:41;;;;;;;21.58;8.88;;;;;;;9.29;100.00;98726.84;5094472;28;20028;-48
2022/11/29 08:57:06;;;;;;;15.93;7.10;;;;;;;9.25;100.00;98723.00;5094428;28;20016;-48
2022/11/29 08:59:32;;;;;;;30.13;6.68;;;;;;;9.21;100.00;98719.94;5092997;28;20398;-48
2022/11/29 09:01:58;;;;;;;29.42;10.02;;;;;;;9.55;100.00;98720.97;5093029;28;20036;-48
2022/11/29 09:04:23;;;;;;;7.38;4.53;;;;;;;9.81;100.00;98725.56;5094295;28;20020;-48
2022/11/29 09:06:49;;;;;;;13.07;7.43;;;;;;;9.85;100.00;98731.22;5094196;28;20028;-48
2022/11/29 09:09:15;;;;;;;22.55;5.93;;;;;;;9.97;100.00;98727.03;5092864;28;20516;-48
2022/11/29 09:11:42;;;;;;;21.52;6.85;;;;;;;10.04;100.00;98730.50;5094199;28;20042;-48
2022/11/29 09:14:13;;;;;;;7.85;4.63;;;;;;;10.08;100.00;98739.59;5094110;28;20027;-48
2022/11/29 09:16:39;;;;;;;6.95;5.82;;;;;;;10.19;100.00;98732.97;5094152;28;20540;-48
2022/11/29 09:19:05;;;;;;;28.55;6.32;;;;;;;10.42;100.00;98731.88;5093644;28;20117;-48
2022/11/29 09:21:33;;;;;;;10.48;3.33;;;;;;;10.55;100.00;98735.34;5093959;28;20024;-48
2022/11/29 09:24:00;;;;;;;10.43;4.10;;;;;;;10.56;100.00;98736.97;5094001;28;20039;-48
2022/11/29 09:26:28;;;;;;;4.97;3.00;;;;;;;10.43;100.00;98736.13;5093869;28;20063;-48
2022/11/29 09:28:56;;;;;;;6.32;2.97;;;;;;;10.21;100.00;98744.09;5093764;28;20035;-48
2022/11/29 09:31:22;;;;;;;7.82;3.42;;;;;;;10.07;100.00;98743.22;5093708;28;20020;-48
2022/11/29 09:33:48;;;;;;;13.40;3.47;;;;;;;10.08;100.00;98744.03;5092451;28;20028;-48
2022/11/29 09:36:15;;;;;;;16.88;4.22;;;;;;;9.96;100.00;98741.13;5093654;28;20520;-48
2022/11/29 09:38:41;;;;;;;16.25;5.03;;;;;;;9.96;100.00;98744.59;5092309;28;20062;-46
2022/11/29 09:41:37;;;;;;;33.63;28.67;;;;;;;10.00;100.00;98745.81;5093561;28;20506;-48
2022/11/29 09:44:31;;;;;;;114.43;91.60;;;;;;;10.15;100.00;98750.91;5092281;28;20145;-47
2022/11/29 09:47:07;;;;;;;337.65;285.67;;;;;;;10.26;100.00;98746.09;5093483;28;20024;-47
2022/11/29 09:50:23;;;;;;;371.60;180.45;;;;;;;10.34;100.00;98748.59;5092164;28;20032;-47
2022/11/29 09:53:03;;;;;;;292.77;121.38;;;;;;;10.41;100.00;98754.69;5031032;28;20029;-47
2022/11/29 09:55:45;;;;;;;1131.80;693.42;;;;;;;10.50;100.00;98756.13;5030999;28;20029;-48
2022/11/29 09:58:16;;;;;;;1999.90;999.90;;;;;;;10.65;100.00;98750.69;5029776;28;20061;-47
2022/11/29 10:01:05;;;;;;;1999.90;999.90;;;;;;;10.74;100.00;98753.94;5030893;28;20040;-47
2022/11/29 10:03:39;;;;;;;899.13;674.28;;;;;;;10.80;100.00;98750.50;5030842;28;20037;-48
2022/11/29 10:06:22;;;;;;;318.38;214.02;;;;;;;10.77;100.00;98743.06;5014162;28;20069;-47
2022/11/29 10:09:19;;;;;;;120.25;69.95;;;;;;;10.76;100.00;98751.91;5014149;28;20025;-48
2022/11/29 10:11:56;;;;;;;49.75;33.55;;;;;;;10.71;100.00;98747.28;5025950;28;20041;-47
2022/11/29 10:14:33;;;;;;;58.28;36.65;;;;;;;10.71;100.00;98744.66;5030548;28;20091;-48
2022/11/29 10:17:36;;;;;;;37.17;22.92;;;;;;;10.77;100.00;98748.31;4998884;28;20462;-47
2022/11/29 10:20:23;;;;;;;39.00;24.77;;;;;;;10.72;100.00;98742.81;5030454;28;20044;-47
2022/11/29 10:22:53;;;;;;;34.05;20.15;;;;;;;10.66;100.00;98746.25;5032959;28;20035;-47
2022/11/29 10:25:30;;;;;;;77.72;60.55;;;;;;;10.61;100.00;98744.22;5092751;28;20111;-47
2022/11/29 10:27:56;;;;;;;79.97;19.17;;;;;;;10.54;100.00;98748.66;5092824;28;20056;-47
2022/11/29 10:30:22;;;;;;;88.40;51.33;;;;;;;10.57;100.00;98738.56;5092663;28;20058;-47
2022/11/29 10:32:55;;;;;;;1999.90;999.90;;;;;;;10.65;100.00;98745.44;5092691;28;20489;-47
2022/11/29 10:35:21;;;;;;;727.85;631.92;;;;;;;10.75;100.00;98745.06;5092896;28;20397;-47
2022/11/29 10:37:53;;;;;;;375.33;300.50;;;;;;;10.77;100.00;98746.47;5092511;28;20490;-47
2022/11/29 10:40:29;;;;;;;68.78;44.90;;;;;;;10.91;100.00;98736.81;5092370;28;20039;-47
2022/11/29 10:42:54;;;;;;;1999.90;999.90;;;;;;;11.14;100.00;98732.97;5091404;28;20055;-47
2022/11/29 10:45:48;;;;;;;1999.90;999.90;;;;;;;11.42;100.00;98739.81;5092291;28;20528;-47
2022/11/29 10:48:32;;;;;;;1999.90;999.90;;;;;;;11.49;100.00;98736.19;5086379;28;20111;-47
2022/11/29 10:50:59;;;;;;;655.88;484.58;;;;;;;11.52;100.00;98741.00;5090910;28;20482;-47
2022/11/29 10:53:31;;;;;;;1567.85;807.08;;;;;;;11.49;100.00;98737.97;5092255;28;20053;-47
2022/11/29 10:56:15;;;;;;;917.08;624.92;;;;;;;11.35;100.00;98735.38;5092279;28;20081;-47
2022/11/29 10:59:04;;;;;;;1265.68;858.50;;;;;;;11.31;100.00;98734.19;5092093;28;20020;-48
2022/11/29 11:01:37;;;;;;;1999.90;999.90;;;;;;;11.25;100.00;98727.09;5092191;28;20038;-47
2022/11/29 11:04:08;;;;;;;884.40;699.60;;;;;;;11.08;100.00;98728.53;5092194;28;20031;-48
2022/11/29 11:06:55;;;;;;;399.88;308.45;;;;;;;11.05;100.00;98721.06;5092146;28;20036;-48
2022/11/29 11:09:27;;;;;;;362.75;255.07;;;;;;;10.98;100.00;98718.41;5091714;28;20530;-47
2022/11/29 11:11:59;;;;;;;331.48;223.05;;;;;;;10.94;100.00;98719.81;5090759;28;20059;-48
2022/11/29 11:14:29;;;;;;;327.65;233.52;;;;;;;10.87;100.00;98709.34;5090975;28;20043;-48
2022/11/29 11:16:55;;;;;;;129.60;80.57;;;;;;;10.91;100.00;98710.53;5091915;28;20036;-48
2022/11/29 11:19:33;;;;;;;127.90;84.68;;;;;;;10.95;100.00;98703.88;5090275;28;20517;-48
2022/11/29 11:22:02;;;;;;;130.27;89.75;;;;;;;11.05;100.00;98703.47;5091905;28;20048;-48
2022/11/29 11:24:35;;;;;;;506.63;445.92;;;;;;;11.12;100.00;98703.47;5091925;28;20065;-48
2022/11/29 11:27:02;;;;;;;1999.90;999.90;;;;;;;11.02;100.00;98709.13;5091959;28;20035;-48
2022/11/29 11:29:43;;;;;;;1999.90;999.90;;;;;;;10.95;100.00;98706.50;5091827;28;20537;-48
2022/11/29 11:32:17;;;;;;;828.97;633.63;;;;;;;10.92;100.00;98704.28;5091811;28;20020;-48
2022/11/29 11:34:52;;;;;;;392.15;251.45;;;;;;;10.86;100.00;98701.66;5090646;28;20031;-48
2022/11/29 11:37:21;;;;;;;93.38;53.58;;;;;;;10.86;100.00;98710.31;5091684;28;20032;-48
2022/11/29 11:39:54;;;;;;;98.28;58.50;;;;;;;10.87;100.00;98709.34;5090338;28;20136;-48
2022/11/29 11:42:37;;;;;;;140.50;46.92;;;;;;;10.91;100.00;98709.75;5091689;28;20032;-48
2022/11/29 11:45:09;;;;;;;1190.93;923.25;;;;;;;10.97;100.00;98708.94;5091952;28;20035;-48
2022/11/29 11:47:41;;;;;;;587.72;531.03;;;;;;;11.05;100.00;98708.72;5091470;28;20070;-48
2022/11/29 11:50:12;;;;;;;256.50;230.93;;;;;;;11.15;100.00;98706.50;5091669;28;20444;-48
2022/11/29 11:52:38;;;;;;;123.32;106.15;;;;;;;11.19;100.00;98704.28;5090339;28;20502;-48
2022/11/29 11:55:23;;;;;;;82.30;62.35;;;;;;;11.18;100.00;98706.06;5091511;28;20031;-49
2022/11/29 11:58:04;;;;;;;29.98;22.15;;;;;;;11.20;100.00;98701.44;5091545;28;20047;-48
2022/11/29 12:00:48;;;;;;;43.67;27.55;;;;;;;11.26;100.00;98707.69;5090167;28;20379;-48
2022/11/29 12:03:38;;;;;;;29.20;8.20;;;;;;;11.31;100.00;98709.72;5091807;28;20036;-48
2022/11/29 12:06:38;;;;;;;18.83;6.72;;;;;;;11.25;99.77;98708.72;5090215;28;20067;-48
2022/11/29 12:09:18;;;;;;;7.65;3.58;;;;;;;11.25;99.38;98703.47;5091548;28;20020;-48